sensor_id;sensor_type;location;lat;lon;timestamp;temperature;humidity
5834;DHT22;2943;48.012;10.968;2023-02-25T00:02:12;2.30;99.90
5834;DHT22;2943;48.012;10.968;2023-02-25T00:04:39;2.30;99.90
5834;DHT22;2943;48.012;10.968;2023-02-25T00:07:07;2.20;99.90
5834;DHT22;2943;48.012;10.968;2023-02-25T00:09:34;2.20;99.90
5834;DHT22;2943;48.012;10.968;2023-02-25T00:12:01;2.10;99.90
5834;DHT22;2943;48.012;10.968;2023-02-25T00:14:28;2.10;99.90
5834;DHT22;2943;48.012;10.968;2023-02-25T00:16:56;2.00;99.90
5834;DHT22;2943;48.012;10.968;2023-02-25T00:19:23;2.00;99.90
5834;DHT22;2943;48.012;10.968;2023-02-25T00:21:50;2.00;99.90
5834;DHT22;2943;48.012;10.968;2023-02-25T00:24:17;1.90;99.90
5834;DHT22;2943;48.012;10.968;2023-02-25T00:26:44;1.80;99.90
5834;DHT22;2943;48.012;10.968;2023-02-25T00:29:11;1.70;99.90
5834;DHT22;2943;48.012;10.968;2023-02-25T00:31:38;1.70;99.90
5834;DHT22;2943;48.012;10.968;2023-02-25T00:34:06;1.60;99.90
5834;DHT22;2943;48.012;10.968;2023-02-25T00:36:33;1.50;99.90
5834;DHT22;2943;48.012;10.968;2023-02-25T00:38:59;1.50;99.90
5834;DHT22;2943;48.012;10.968;2023-02-25T00:41:28;1.50;99.90
5834;DHT22;2943;48.012;10.968;2023-02-25T00:43:57;1.50;99.90
5834;DHT22;2943;48.012;10.968;2023-02-25T00:46:24;1.50;99.90
5834;DHT22;2943;48.012;10.968;2023-02-25T00:48:52;1.50;99.90
5834;DHT22;2943;48.012;10.968;2023-02-25T00:51:22;1.60;99.90
5834;DHT22;2943;48.012;10.968;2023-02-25T00:53:50;1.60;99.90
5834;DHT22;2943;48.012;10.968;2023-02-25T00:56:17;1.50;99.90
5834;DHT22;2943;48.012;10.968;2023-02-25T00:58:46;1.50;99.90
5834;DHT22;2943;48.012;10.968;2023-02-25T01:01:18;1.50;99.90
5834;DHT22;2943;48.012;10.968;2023-02-25T01:03:46;1.50;99.90
5834;DHT22;2943;48.012;10.968;2023-02-25T01:06:13;1.50;99.90
5834;DHT22;2943;48.012;10.968;2023-02-25T01:08:41;1.50;99.90
5834;DHT22;2943;48.012;10.968;2023-02-25T01:11:13;1.50;99.90
5834;DHT22;2943;48.012;10.968;2023-02-25T01:13:41;1.50;99.90
5834;DHT22;2943;48.012;10.968;2023-02-25T01:16:13;1.50;99.90
5834;DHT22;2943;48.012;10.968;2023-02-25T01:18:41;1.60;99.90
5834;DHT22;2943;48.012;10.968;2023-02-25T01:21:14;1.60;99.90
5834;DHT22;2943;48.012;10.968;2023-02-25T01:23:43;1.70;99.90
5834;DHT22;2943;48.012;10.968;2023-02-25T01:26:10;1.70;99.90
5834;DHT22;2943;48.012;10.968;2023-02-25T01:28:37;1.80;99.90
5834;DHT22;2943;48.012;10.968;2023-02-25T01:31:05;1.80;99.90
5834;DHT22;2943;48.012;10.968;2023-02-25T01:33:33;1.80;99.90
5834;DHT22;2943;48.012;10.968;2023-02-25T01:36:03;1.90;99.90
5834;DHT22;2943;48.012;10.968;2023-02-25T01:38:31;1.90;99.90
5834;DHT22;2943;48.012;10.968;2023-02-25T01:41:00;1.90;99.90
5834;DHT22;2943;48.012;10.968;2023-02-25T01:43:27;1.90;99.90
5834;DHT22;2943;48.012;10.968;2023-02-25T01:45:55;1.90;99.90
5834;DHT22;2943;48.012;10.968;2023-02-25T01:48:24;1.90;99.90
5834;DHT22;2943;48.012;10.968;2023-02-25T01:50:56;1.80;99.90
5834;DHT22;2943;48.012;10.968;2023-02-25T01:53:26;1.80;99.90
5834;DHT22;2943;48.012;10.968;2023-02-25T01:55:55;1.80;99.90
5834;DHT22;2943;48.012;10.968;2023-02-25T01:58:24;1.80;99.90
5834;DHT22;2943;48.012;10.968;2023-02-25T02:00:52;1.80;99.90
5834;DHT22;2943;48.012;10.968;2023-02-25T02:03:21;1.80;99.90
5834;DHT22;2943;48.012;10.968;2023-02-25T02:05:57;1.80;99.90
5834;DHT22;2943;48.012;10.968;2023-02-25T02:08:25;1.80;99.90
5834;DHT22;2943;48.012;10.968;2023-02-25T02:10:52;1.90;99.90
5834;DHT22;2943;48.012;10.968;2023-02-25T02:13:20;1.90;99.90
5834;DHT22;2943;48.012;10.968;2023-02-25T02:15:54;1.90;99.90
5834;DHT22;2943;48.012;10.968;2023-02-25T02:18:24;1.80;99.90
5834;DHT22;2943;48.012;10.968;2023-02-25T02:21:04;1.80;99.90
5834;DHT22;2943;48.012;10.968;2023-02-25T02:24:14;1.80;99.90
5834;DHT22;2943;48.012;10.968;2023-02-25T02:26:56;1.80;99.90
5834;DHT22;2943;48.012;10.968;2023-02-25T02:29:46;1.70;99.90
5834;DHT22;2943;48.012;10.968;2023-02-25T02:32:29;1.70;99.90
5834;DHT22;2943;48.012;10.968;2023-02-25T02:35:03;1.60;99.90
5834;DHT22;2943;48.012;10.968;2023-02-25T02:37:39;1.40;99.90
5834;DHT22;2943;48.012;10.968;2023-02-25T02:40:18;1.30;99.90
5834;DHT22;2943;48.012;10.968;2023-02-25T02:42:55;1.20;99.90
5834;DHT22;2943;48.012;10.968;2023-02-25T02:45:30;1.20;99.90
5834;DHT22;2943;48.012;10.968;2023-02-25T02:48:03;1.20;99.90
5834;DHT22;2943;48.012;10.968;2023-02-25T02:50:33;1.20;99.90
5834;DHT22;2943;48.012;10.968;2023-02-25T02:53:05;1.20;99.90
5834;DHT22;2943;48.012;10.968;2023-02-25T02:55:34;1.30;99.90
5834;DHT22;2943;48.012;10.968;2023-02-25T02:58:06;1.30;99.90
5834;DHT22;2943;48.012;10.968;2023-02-25T03:00:38;1.30;99.90
5834;DHT22;2943;48.012;10.968;2023-02-25T03:03:10;1.30;99.90
5834;DHT22;2943;48.012;10.968;2023-02-25T03:05:39;1.30;99.90
5834;DHT22;2943;48.012;10.968;2023-02-25T03:08:09;1.40;99.90
5834;DHT22;2943;48.012;10.968;2023-02-25T03:10:36;1.40;99.90
5834;DHT22;2943;48.012;10.968;2023-02-25T03:13:03;1.40;99.90
5834;DHT22;2943;48.012;10.968;2023-02-25T03:15:31;1.40;99.90
5834;DHT22;2943;48.012;10.968;2023-02-25T03:18:02;1.40;99.90
5834;DHT22;2943;48.012;10.968;2023-02-25T03:20:36;1.40;99.90
5834;DHT22;2943;48.012;10.968;2023-02-25T03:23:07;1.40;99.90
5834;DHT22;2943;48.012;10.968;2023-02-25T03:25:38;1.40;99.90
5834;DHT22;2943;48.012;10.968;2023-02-25T03:28:21;1.40;99.90
5834;DHT22;2943;48.012;10.968;2023-02-25T03:30:55;1.40;99.90
5834;DHT22;2943;48.012;10.968;2023-02-25T03:33:29;1.30;99.90
5834;DHT22;2943;48.012;10.968;2023-02-25T03:35:59;1.30;99.90
5834;DHT22;2943;48.012;10.968;2023-02-25T03:38:30;1.20;99.90
5834;DHT22;2943;48.012;10.968;2023-02-25T03:41:00;1.10;99.90
5834;DHT22;2943;48.012;10.968;2023-02-25T03:43:32;1.20;99.90
5834;DHT22;2943;48.012;10.968;2023-02-25T03:46:03;1.20;99.90
5834;DHT22;2943;48.012;10.968;2023-02-25T03:48:31;1.10;99.90
5834;DHT22;2943;48.012;10.968;2023-02-25T03:51:02;1.10;99.90
5834;DHT22;2943;48.012;10.968;2023-02-25T03:53:30;1.10;99.90
5834;DHT22;2943;48.012;10.968;2023-02-25T03:56:00;1.10;99.90
5834;DHT22;2943;48.012;10.968;2023-02-25T03:58:30;1.10;99.90
5834;DHT22;2943;48.012;10.968;2023-02-25T04:00:57;1.10;99.90
5834;DHT22;2943;48.012;10.968;2023-02-25T04:03:27;1.10;99.90
5834;DHT22;2943;48.012;10.968;2023-02-25T04:05:54;1.10;99.90
5834;DHT22;2943;48.012;10.968;2023-02-25T04:08:22;1.10;99.90
5834;DHT22;2943;48.012;10.968;2023-02-25T04:10:49;1.20;99.90
5834;DHT22;2943;48.012;10.968;2023-02-25T04:13:17;1.20;99.90
5834;DHT22;2943;48.012;10.968;2023-02-25T04:15:45;1.20;99.90
5834;DHT22;2943;48.012;10.968;2023-02-25T04:18:13;1.20;99.90
5834;DHT22;2943;48.012;10.968;2023-02-25T04:20:40;1.20;99.90
5834;DHT22;2943;48.012;10.968;2023-02-25T04:23:07;1.30;99.90
5834;DHT22;2943;48.012;10.968;2023-02-25T04:25:35;1.30;99.90
5834;DHT22;2943;48.012;10.968;2023-02-25T04:28:02;1.30;99.90
5834;DHT22;2943;48.012;10.968;2023-02-25T04:30:29;1.30;99.90
5834;DHT22;2943;48.012;10.968;2023-02-25T04:32:56;1.30;99.90
5834;DHT22;2943;48.012;10.968;2023-02-25T04:35:23;1.30;99.90
5834;DHT22;2943;48.012;10.968;2023-02-25T04:37:50;1.30;99.90
5834;DHT22;2943;48.012;10.968;2023-02-25T04:40:19;1.30;99.90
5834;DHT22;2943;48.012;10.968;2023-02-25T04:42:48;1.30;99.90
5834;DHT22;2943;48.012;10.968;2023-02-25T04:45:15;1.30;99.90
5834;DHT22;2943;48.012;10.968;2023-02-25T04:47:43;1.20;99.90
5834;DHT22;2943;48.012;10.968;2023-02-25T04:50:11;1.20;99.90
5834;DHT22;2943;48.012;10.968;2023-02-25T04:52:38;1.30;99.90
5834;DHT22;2943;48.012;10.968;2023-02-25T04:55:06;1.30;99.90
5834;DHT22;2943;48.012;10.968;2023-02-25T04:57:35;1.30;99.90
5834;DHT22;2943;48.012;10.968;2023-02-25T05:00:12;1.30;99.90
5834;DHT22;2943;48.012;10.968;2023-02-25T05:02:45;1.20;99.90
5834;DHT22;2943;48.012;10.968;2023-02-25T05:05:12;1.20;99.90
5834;DHT22;2943;48.012;10.968;2023-02-25T05:07:39;1.20;99.90
5834;DHT22;2943;48.012;10.968;2023-02-25T05:10:07;1.20;99.90
5834;DHT22;2943;48.012;10.968;2023-02-25T05:12:35;1.20;99.90
5834;DHT22;2943;48.012;10.968;2023-02-25T05:15:02;1.20;99.90
5834;DHT22;2943;48.012;10.968;2023-02-25T05:17:31;1.20;99.90
5834;DHT22;2943;48.012;10.968;2023-02-25T05:19:58;1.20;99.90
5834;DHT22;2943;48.012;10.968;2023-02-25T05:22:25;1.30;99.90
5834;DHT22;2943;48.012;10.968;2023-02-25T05:24:53;1.20;99.90
5834;DHT22;2943;48.012;10.968;2023-02-25T05:27:20;1.30;99.90
5834;DHT22;2943;48.012;10.968;2023-02-25T05:29:46;1.30;99.90
5834;DHT22;2943;48.012;10.968;2023-02-25T05:32:15;1.20;99.90
5834;DHT22;2943;48.012;10.968;2023-02-25T05:34:44;1.20;99.90
5834;DHT22;2943;48.012;10.968;2023-02-25T05:37:11;1.30;99.90
5834;DHT22;2943;48.012;10.968;2023-02-25T05:39:38;1.30;99.90
5834;DHT22;2943;48.012;10.968;2023-02-25T05:42:04;1.30;99.90
5834;DHT22;2943;48.012;10.968;2023-02-25T05:44:31;1.30;99.90
5834;DHT22;2943;48.012;10.968;2023-02-25T05:46:58;1.30;99.90
5834;DHT22;2943;48.012;10.968;2023-02-25T05:49:25;1.30;99.90
5834;DHT22;2943;48.012;10.968;2023-02-25T05:51:53;1.30;99.90
5834;DHT22;2943;48.012;10.968;2023-02-25T05:54:20;1.30;99.90
5834;DHT22;2943;48.012;10.968;2023-02-25T05:56:49;1.30;99.90
5834;DHT22;2943;48.012;10.968;2023-02-25T05:59:16;1.30;99.90
5834;DHT22;2943;48.012;10.968;2023-02-25T06:01:43;1.30;99.90
5834;DHT22;2943;48.012;10.968;2023-02-25T06:04:10;1.30;99.90
5834;DHT22;2943;48.012;10.968;2023-02-25T06:06:37;1.30;99.90
5834;DHT22;2943;48.012;10.968;2023-02-25T06:09:05;1.30;99.90
5834;DHT22;2943;48.012;10.968;2023-02-25T06:11:34;1.30;99.90
5834;DHT22;2943;48.012;10.968;2023-02-25T06:14:01;1.30;99.90
5834;DHT22;2943;48.012;10.968;2023-02-25T06:16:28;1.30;99.90
5834;DHT22;2943;48.012;10.968;2023-02-25T06:18:57;1.30;99.90
5834;DHT22;2943;48.012;10.968;2023-02-25T06:21:24;1.20;99.90
5834;DHT22;2943;48.012;10.968;2023-02-25T06:23:51;1.20;99.90
5834;DHT22;2943;48.012;10.968;2023-02-25T06:26:19;1.30;99.90
5834;DHT22;2943;48.012;10.968;2023-02-25T06:28:46;1.20;99.90
5834;DHT22;2943;48.012;10.968;2023-02-25T06:31:15;1.20;99.90
5834;DHT22;2943;48.012;10.968;2023-02-25T06:33:42;1.20;99.90
5834;DHT22;2943;48.012;10.968;2023-02-25T06:36:10;1.20;99.90
5834;DHT22;2943;48.012;10.968;2023-02-25T06:38:36;1.30;99.90
5834;DHT22;2943;48.012;10.968;2023-02-25T06:41:07;1.30;99.90
5834;DHT22;2943;48.012;10.968;2023-02-25T06:43:37;1.30;99.90
5834;DHT22;2943;48.012;10.968;2023-02-25T06:46:05;1.30;99.90
5834;DHT22;2943;48.012;10.968;2023-02-25T06:48:32;1.30;99.90
5834;DHT22;2943;48.012;10.968;2023-02-25T06:50:59;1.40;99.90
5834;DHT22;2943;48.012;10.968;2023-02-25T06:53:26;1.40;99.90
5834;DHT22;2943;48.012;10.968;2023-02-25T06:55:53;1.40;99.90
5834;DHT22;2943;48.012;10.968;2023-02-25T06:58:20;1.40;99.90
5834;DHT22;2943;48.012;10.968;2023-02-25T07:00:48;1.40;99.90
5834;DHT22;2943;48.012;10.968;2023-02-25T07:03:15;1.40;99.90
5834;DHT22;2943;48.012;10.968;2023-02-25T07:05:42;1.50;99.90
5834;DHT22;2943;48.012;10.968;2023-02-25T07:08:09;1.50;99.90
5834;DHT22;2943;48.012;10.968;2023-02-25T07:10:39;1.40;99.90
5834;DHT22;2943;48.012;10.968;2023-02-25T07:13:08;1.50;99.90
5834;DHT22;2943;48.012;10.968;2023-02-25T07:15:36;1.50;99.90
5834;DHT22;2943;48.012;10.968;2023-02-25T07:18:04;1.50;99.90
5834;DHT22;2943;48.012;10.968;2023-02-25T07:20:32;1.50;99.90
5834;DHT22;2943;48.012;10.968;2023-02-25T07:23:01;1.60;99.90
5834;DHT22;2943;48.012;10.968;2023-02-25T07:25:28;1.60;99.90
5834;DHT22;2943;48.012;10.968;2023-02-25T07:27:55;1.60;99.90
5834;DHT22;2943;48.012;10.968;2023-02-25T07:30:22;1.60;99.90
5834;DHT22;2943;48.012;10.968;2023-02-25T07:32:48;1.70;99.90
5834;DHT22;2943;48.012;10.968;2023-02-25T07:35:18;1.70;99.90
5834;DHT22;2943;48.012;10.968;2023-02-25T07:37:45;1.80;99.90
5834;DHT22;2943;48.012;10.968;2023-02-25T07:40:12;1.90;99.90
5834;DHT22;2943;48.012;10.968;2023-02-25T07:42:41;1.90;99.90
5834;DHT22;2943;48.012;10.968;2023-02-25T07:45:09;2.00;99.90
5834;DHT22;2943;48.012;10.968;2023-02-25T07:47:37;2.00;99.90
5834;DHT22;2943;48.012;10.968;2023-02-25T07:50:05;2.10;99.90
5834;DHT22;2943;48.012;10.968;2023-02-25T07:52:34;2.20;99.90
5834;DHT22;2943;48.012;10.968;2023-02-25T07:55:01;2.20;99.90
5834;DHT22;2943;48.012;10.968;2023-02-25T07:57:28;2.20;99.90
5834;DHT22;2943;48.012;10.968;2023-02-25T07:59:55;2.20;99.90
5834;DHT22;2943;48.012;10.968;2023-02-25T08:02:22;2.20;99.90
5834;DHT22;2943;48.012;10.968;2023-02-25T08:04:49;2.30;99.90
5834;DHT22;2943;48.012;10.968;2023-02-25T08:07:16;2.40;99.90
5834;DHT22;2943;48.012;10.968;2023-02-25T08:09:44;2.40;99.90
5834;DHT22;2943;48.012;10.968;2023-02-25T08:12:11;2.40;99.90
5834;DHT22;2943;48.012;10.968;2023-02-25T08:14:38;2.50;99.90
5834;DHT22;2943;48.012;10.968;2023-02-25T08:17:05;2.40;99.90
5834;DHT22;2943;48.012;10.968;2023-02-25T08:19:32;2.40;99.90
5834;DHT22;2943;48.012;10.968;2023-02-25T08:21:59;2.40;99.90
5834;DHT22;2943;48.012;10.968;2023-02-25T08:24:26;2.40;99.90
5834;DHT22;2943;48.012;10.968;2023-02-25T08:26:54;2.50;99.90
5834;DHT22;2943;48.012;10.968;2023-02-25T08:29:21;2.50;99.90
5834;DHT22;2943;48.012;10.968;2023-02-25T08:31:49;2.40;99.90
5834;DHT22;2943;48.012;10.968;2023-02-25T08:34:16;2.40;99.90
5834;DHT22;2943;48.012;10.968;2023-02-25T08:36:43;2.40;99.90
5834;DHT22;2943;48.012;10.968;2023-02-25T08:39:10;2.40;99.90
5834;DHT22;2943;48.012;10.968;2023-02-25T08:41:37;2.40;99.90
5834;DHT22;2943;48.012;10.968;2023-02-25T08:44:05;2.50;99.90
5834;DHT22;2943;48.012;10.968;2023-02-25T08:46:32;2.50;99.90
5834;DHT22;2943;48.012;10.968;2023-02-25T08:48:59;2.50;99.90
5834;DHT22;2943;48.012;10.968;2023-02-25T08:51:27;2.50;99.90
5834;DHT22;2943;48.012;10.968;2023-02-25T08:53:59;2.50;99.90
5834;DHT22;2943;48.012;10.968;2023-02-25T08:56:26;2.50;99.90
5834;DHT22;2943;48.012;10.968;2023-02-25T08:58:53;2.50;99.90
5834;DHT22;2943;48.012;10.968;2023-02-25T09:01:22;2.50;99.90
5834;DHT22;2943;48.012;10.968;2023-02-25T09:03:48;2.50;99.90
5834;DHT22;2943;48.012;10.968;2023-02-25T09:06:20;2.50;99.90
5834;DHT22;2943;48.012;10.968;2023-02-25T09:08:47;2.50;99.90
5834;DHT22;2943;48.012;10.968;2023-02-25T09:11:14;2.50;99.90
5834;DHT22;2943;48.012;10.968;2023-02-25T09:13:41;2.40;99.90
5834;DHT22;2943;48.012;10.968;2023-02-25T09:16:08;2.30;99.90
5834;DHT22;2943;48.012;10.968;2023-02-25T09:18:37;2.20;99.90
5834;DHT22;2943;48.012;10.968;2023-02-25T09:21:04;2.10;99.90
5834;DHT22;2943;48.012;10.968;2023-02-25T09:23:31;1.90;99.90
5834;DHT22;2943;48.012;10.968;2023-02-25T09:26:02;1.90;99.90
5834;DHT22;2943;48.012;10.968;2023-02-25T09:28:29;1.80;99.90
5834;DHT22;2943;48.012;10.968;2023-02-25T09:30:57;1.70;99.90
5834;DHT22;2943;48.012;10.968;2023-02-25T09:33:24;1.60;99.90
5834;DHT22;2943;48.012;10.968;2023-02-25T09:35:52;1.60;99.90
5834;DHT22;2943;48.012;10.968;2023-02-25T09:38:20;1.60;99.90
5834;DHT22;2943;48.012;10.968;2023-02-25T09:40:48;1.50;99.90
5834;DHT22;2943;48.012;10.968;2023-02-25T09:43:19;1.60;99.90
5834;DHT22;2943;48.012;10.968;2023-02-25T09:45:48;1.60;99.90
5834;DHT22;2943;48.012;10.968;2023-02-25T09:48:19;1.60;99.90
5834;DHT22;2943;48.012;10.968;2023-02-25T09:50:55;1.60;99.90
5834;DHT22;2943;48.012;10.968;2023-02-25T09:53:26;1.70;99.90
5834;DHT22;2943;48.012;10.968;2023-02-25T09:55:54;1.70;99.90
5834;DHT22;2943;48.012;10.968;2023-02-25T09:58:25;1.80;99.90
5834;DHT22;2943;48.012;10.968;2023-02-25T10:01:00;1.90;99.90
5834;DHT22;2943;48.012;10.968;2023-02-25T10:03:44;2.00;99.90
5834;DHT22;2943;48.012;10.968;2023-02-25T10:06:19;2.00;99.90
5834;DHT22;2943;48.012;10.968;2023-02-25T10:08:51;1.90;99.90
5834;DHT22;2943;48.012;10.968;2023-02-25T10:11:28;1.80;99.90
5834;DHT22;2943;48.012;10.968;2023-02-25T10:14:11;1.80;99.90
5834;DHT22;2943;48.012;10.968;2023-02-25T10:16:45;1.80;99.90
5834;DHT22;2943;48.012;10.968;2023-02-25T10:19:24;1.80;99.90
5834;DHT22;2943;48.012;10.968;2023-02-25T10:22:08;1.90;99.90
5834;DHT22;2943;48.012;10.968;2023-02-25T10:24:42;1.90;99.90
5834;DHT22;2943;48.012;10.968;2023-02-25T10:27:18;1.90;99.90
5834;DHT22;2943;48.012;10.968;2023-02-25T10:29:47;1.90;99.90
5834;DHT22;2943;48.012;10.968;2023-02-25T10:32:19;1.90;99.90
5834;DHT22;2943;48.012;10.968;2023-02-25T10:34:47;1.80;99.90
5834;DHT22;2943;48.012;10.968;2023-02-25T10:37:19;1.80;99.90
5834;DHT22;2943;48.012;10.968;2023-02-25T10:39:50;1.80;99.90
5834;DHT22;2943;48.012;10.968;2023-02-25T10:42:17;1.90;99.90
5834;DHT22;2943;48.012;10.968;2023-02-25T10:44:45;1.90;99.90
5834;DHT22;2943;48.012;10.968;2023-02-25T10:47:17;2.00;99.90
5834;DHT22;2943;48.012;10.968;2023-02-25T10:50:15;2.00;99.90
5834;DHT22;2943;48.012;10.968;2023-02-25T10:53:01;2.10;99.90
5834;DHT22;2943;48.012;10.968;2023-02-25T10:55:43;2.10;99.90
5834;DHT22;2943;48.012;10.968;2023-02-25T10:58:34;2.20;99.90
5834;DHT22;2943;48.012;10.968;2023-02-25T11:01:09;2.40;99.90
5834;DHT22;2943;48.012;10.968;2023-02-25T11:03:44;2.50;99.90
5834;DHT22;2943;48.012;10.968;2023-02-25T11:06:17;2.50;99.90
5834;DHT22;2943;48.012;10.968;2023-02-25T11:08:46;2.50;99.90
5834;DHT22;2943;48.012;10.968;2023-02-25T11:11:15;2.60;99.90
5834;DHT22;2943;48.012;10.968;2023-02-25T11:13:43;2.70;99.90
5834;DHT22;2943;48.012;10.968;2023-02-25T11:16:11;2.70;99.90
5834;DHT22;2943;48.012;10.968;2023-02-25T11:18:39;2.80;99.90
5834;DHT22;2943;48.012;10.968;2023-02-25T11:21:09;2.80;99.90
5834;DHT22;2943;48.012;10.968;2023-02-25T11:23:46;2.80;99.90
5834;DHT22;2943;48.012;10.968;2023-02-25T11:26:26;2.90;99.90
5834;DHT22;2943;48.012;10.968;2023-02-25T11:29:01;2.90;99.90
5834;DHT22;2943;48.012;10.968;2023-02-25T11:31:35;2.90;99.90
5834;DHT22;2943;48.012;10.968;2023-02-25T11:34:13;3.00;99.90
5834;DHT22;2943;48.012;10.968;2023-02-25T11:36:41;3.00;99.90
5834;DHT22;2943;48.012;10.968;2023-02-25T11:39:18;3.00;99.90
5834;DHT22;2943;48.012;10.968;2023-02-25T11:41:47;3.00;99.90
5834;DHT22;2943;48.012;10.968;2023-02-25T11:44:27;3.00;99.90
5834;DHT22;2943;48.012;10.968;2023-02-25T11:47:00;3.00;99.90
5834;DHT22;2943;48.012;10.968;2023-02-25T11:50:03;3.00;99.90
5834;DHT22;2943;48.012;10.968;2023-02-25T11:52:37;3.00;99.90
5834;DHT22;2943;48.012;10.968;2023-02-25T11:55:20;3.00;99.90
5834;DHT22;2943;48.012;10.968;2023-02-25T11:57:59;3.10;99.90
5834;DHT22;2943;48.012;10.968;2023-02-25T12:00:34;3.10;99.90
5834;DHT22;2943;48.012;10.968;2023-02-25T12:06:13;3.00;99.90
5834;DHT22;2943;48.012;10.968;2023-02-25T12:09:00;2.90;99.90
5834;DHT22;2943;48.012;10.968;2023-02-25T12:11:57;2.90;99.90
5834;DHT22;2943;48.012;10.968;2023-02-25T12:14:51;2.80;99.90
5834;DHT22;2943;48.012;10.968;2023-02-25T12:17:37;2.70;99.90
5834;DHT22;2943;48.012;10.968;2023-02-25T12:20:30;2.80;99.90
5834;DHT22;2943;48.012;10.968;2023-02-25T12:26:04;2.70;99.90
5834;DHT22;2943;48.012;10.968;2023-02-25T12:28:44;2.70;99.90
5834;DHT22;2943;48.012;10.968;2023-02-25T12:31:47;2.80;99.90
5834;DHT22;2943;48.012;10.968;2023-02-25T12:37:21;2.90;99.90
5834;DHT22;2943;48.012;10.968;2023-02-25T12:39:59;2.90;99.90
5834;DHT22;2943;48.012;10.968;2023-02-25T12:42:52;3.00;99.90
5834;DHT22;2943;48.012;10.968;2023-02-25T12:45:31;3.00;99.90
5834;DHT22;2943;48.012;10.968;2023-02-25T12:48:25;3.00;99.90
5834;DHT22;2943;48.012;10.968;2023-02-25T12:51:21;3.10;99.90
5834;DHT22;2943;48.012;10.968;2023-02-25T12:53:55;3.10;99.90
5834;DHT22;2943;48.012;10.968;2023-02-25T12:59:45;3.10;99.90
5834;DHT22;2943;48.012;10.968;2023-02-25T13:02:38;3.10;99.90
5834;DHT22;2943;48.012;10.968;2023-02-25T13:05:35;3.00;99.90
5834;DHT22;2943;48.012;10.968;2023-02-25T13:08:27;3.00;99.90
5834;DHT22;2943;48.012;10.968;2023-02-25T13:11:06;2.90;99.90
5834;DHT22;2943;48.012;10.968;2023-02-25T13:14:04;2.80;99.90
5834;DHT22;2943;48.012;10.968;2023-02-25T13:16:45;2.70;99.90
5834;DHT22;2943;48.012;10.968;2023-02-25T13:19:38;2.70;99.90
5834;DHT22;2943;48.012;10.968;2023-02-25T13:22:20;2.70;99.90
5834;DHT22;2943;48.012;10.968;2023-02-25T13:24:56;2.70;99.90
5834;DHT22;2943;48.012;10.968;2023-02-25T13:27:58;2.80;99.90
5834;DHT22;2943;48.012;10.968;2023-02-25T13:30:34;2.80;99.90
5834;DHT22;2943;48.012;10.968;2023-02-25T13:33:22;2.90;99.90
5834;DHT22;2943;48.012;10.968;2023-02-25T13:36:00;3.00;99.90
5834;DHT22;2943;48.012;10.968;2023-02-25T13:38:56;3.10;99.90
5834;DHT22;2943;48.012;10.968;2023-02-25T13:41:34;3.20;99.90
5834;DHT22;2943;48.012;10.968;2023-02-25T13:44:33;3.30;99.90
5834;DHT22;2943;48.012;10.968;2023-02-25T13:47:22;3.30;99.90
5834;DHT22;2943;48.012;10.968;2023-02-25T13:53:31;3.00;99.90
5834;DHT22;2943;48.012;10.968;2023-02-25T13:56:22;2.90;99.90
5834;DHT22;2943;48.012;10.968;2023-02-25T13:59:04;2.80;99.90
5834;DHT22;2943;48.012;10.968;2023-02-25T14:01:46;2.80;99.90
5834;DHT22;2943;48.012;10.968;2023-02-25T14:04:31;2.80;99.90
5834;DHT22;2943;48.012;10.968;2023-02-25T14:07:26;2.80;99.90
5834;DHT22;2943;48.012;10.968;2023-02-25T14:10:20;2.80;99.90
5834;DHT22;2943;48.012;10.968;2023-02-25T14:13:05;2.80;99.90
5834;DHT22;2943;48.012;10.968;2023-02-25T14:15:48;2.80;99.90
5834;DHT22;2943;48.012;10.968;2023-02-25T14:18:31;2.80;99.90
5834;DHT22;2943;48.012;10.968;2023-02-25T14:21:21;2.80;99.90
5834;DHT22;2943;48.012;10.968;2023-02-25T14:23:56;2.90;99.90
5834;DHT22;2943;48.012;10.968;2023-02-25T14:26:32;2.90;99.90
5834;DHT22;2943;48.012;10.968;2023-02-25T14:29:13;2.80;99.90
5834;DHT22;2943;48.012;10.968;2023-02-25T14:32:09;2.80;99.90
5834;DHT22;2943;48.012;10.968;2023-02-25T14:34:48;2.70;99.90
5834;DHT22;2943;48.012;10.968;2023-02-25T14:37:27;2.60;99.90
5834;DHT22;2943;48.012;10.968;2023-02-25T14:40:17;2.60;99.90
5834;DHT22;2943;48.012;10.968;2023-02-25T14:42:56;2.50;99.90
5834;DHT22;2943;48.012;10.968;2023-02-25T14:45:31;2.60;99.90
5834;DHT22;2943;48.012;10.968;2023-02-25T14:48:03;2.50;99.90
5834;DHT22;2943;48.012;10.968;2023-02-25T14:50:36;2.50;99.90
5834;DHT22;2943;48.012;10.968;2023-02-25T14:53:25;2.50;99.90
5834;DHT22;2943;48.012;10.968;2023-02-25T15:02:37;2.30;99.90
5834;DHT22;2943;48.012;10.968;2023-02-25T15:05:23;2.30;99.90
5834;DHT22;2943;48.012;10.968;2023-02-25T15:10:53;2.20;99.90
5834;DHT22;2943;48.012;10.968;2023-02-25T15:14:11;2.20;99.90
5834;DHT22;2943;48.012;10.968;2023-02-25T15:19:49;2.20;99.90
5834;DHT22;2943;48.012;10.968;2023-02-25T15:22:22;2.30;99.90
5834;DHT22;2943;48.012;10.968;2023-02-25T15:24:50;2.20;99.90
5834;DHT22;2943;48.012;10.968;2023-02-25T15:27:48;2.20;99.90
5834;DHT22;2943;48.012;10.968;2023-02-25T15:30:20;2.10;99.90
5834;DHT22;2943;48.012;10.968;2023-02-25T15:32:57;2.10;99.90
5834;DHT22;2943;48.012;10.968;2023-02-25T15:35:53;2.00;99.90
5834;DHT22;2943;48.012;10.968;2023-02-25T15:38:37;2.00;99.90
5834;DHT22;2943;48.012;10.968;2023-02-25T15:41:38;2.00;99.90
5834;DHT22;2943;48.012;10.968;2023-02-25T15:44:34;1.90;99.90
5834;DHT22;2943;48.012;10.968;2023-02-25T15:47:27;1.80;99.90
5834;DHT22;2943;48.012;10.968;2023-02-25T15:49:57;1.90;99.90
5834;DHT22;2943;48.012;10.968;2023-02-25T15:52:55;1.80;99.90
5834;DHT22;2943;48.012;10.968;2023-02-25T15:55:35;1.90;99.90
5834;DHT22;2943;48.012;10.968;2023-02-25T15:58:50;1.80;99.90
5834;DHT22;2943;48.012;10.968;2023-02-25T16:01:36;1.80;99.90
5834;DHT22;2943;48.012;10.968;2023-02-25T16:04:43;1.80;99.90
5834;DHT22;2943;48.012;10.968;2023-02-25T16:07:13;1.80;99.90
5834;DHT22;2943;48.012;10.968;2023-02-25T16:09:45;1.80;99.90
5834;DHT22;2943;48.012;10.968;2023-02-25T16:12:14;1.70;99.90
5834;DHT22;2943;48.012;10.968;2023-02-25T16:14:43;1.70;99.90
5834;DHT22;2943;48.012;10.968;2023-02-25T16:17:15;1.70;99.90
5834;DHT22;2943;48.012;10.968;2023-02-25T16:19:46;1.70;99.90
5834;DHT22;2943;48.012;10.968;2023-02-25T16:22:15;1.70;99.90
5834;DHT22;2943;48.012;10.968;2023-02-25T16:24:46;1.70;99.90
5834;DHT22;2943;48.012;10.968;2023-02-25T16:27:20;1.70;99.90
5834;DHT22;2943;48.012;10.968;2023-02-25T16:29:58;1.70;99.90
5834;DHT22;2943;48.012;10.968;2023-02-25T16:32:35;1.80;99.90
5834;DHT22;2943;48.012;10.968;2023-02-25T16:35:08;2.10;99.90
5834;DHT22;2943;48.012;10.968;2023-02-25T16:37:43;2.30;99.90
5834;DHT22;2943;48.012;10.968;2023-02-25T16:40:16;2.40;99.90
5834;DHT22;2943;48.012;10.968;2023-02-25T16:42:45;2.50;99.90
5834;DHT22;2943;48.012;10.968;2023-02-25T16:45:24;2.50;99.90
5834;DHT22;2943;48.012;10.968;2023-02-25T16:47:57;2.60;99.90
5834;DHT22;2943;48.012;10.968;2023-02-25T16:50:27;2.60;99.90
5834;DHT22;2943;48.012;10.968;2023-02-25T16:52:56;2.70;99.90
5834;DHT22;2943;48.012;10.968;2023-02-25T16:55:24;2.80;99.90
5834;DHT22;2943;48.012;10.968;2023-02-25T16:58:04;2.80;99.90
5834;DHT22;2943;48.012;10.968;2023-02-25T17:00:33;2.80;99.90
5834;DHT22;2943;48.012;10.968;2023-02-25T17:03:02;2.70;99.90
5834;DHT22;2943;48.012;10.968;2023-02-25T17:05:33;2.70;99.90
5834;DHT22;2943;48.012;10.968;2023-02-25T17:08:03;2.60;99.90
5834;DHT22;2943;48.012;10.968;2023-02-25T17:10:32;2.50;99.90